sensor_id;sensor_type;location;lat;lon;timestamp;temperature;humidity
4596;DHT22;2310;49.978;8.742;2023-08-07T00:01:58;15.10;99.90
4596;DHT22;2310;49.978;8.742;2023-08-07T00:05:59;15.00;99.90
4596;DHT22;2310;49.978;8.742;2023-08-07T00:10:00;15.00;99.90
4596;DHT22;2310;49.978;8.742;2023-08-07T00:14:02;14.90;99.90
4596;DHT22;2310;49.978;8.742;2023-08-07T00:18:04;14.90;99.90
4596;DHT22;2310;49.978;8.742;2023-08-07T00:22:05;14.90;99.90
4596;DHT22;2310;49.978;8.742;2023-08-07T00:26:07;14.70;99.90
4596;DHT22;2310;49.978;8.742;2023-08-07T00:30:09;14.80;99.90
4596;DHT22;2310;49.978;8.742;2023-08-07T00:34:10;14.70;99.90
4596;DHT22;2310;49.978;8.742;2023-08-07T00:38:12;14.70;99.90
4596;DHT22;2310;49.978;8.742;2023-08-07T00:42:13;14.70;99.90
4596;DHT22;2310;49.978;8.742;2023-08-07T00:46:14;14.70;99.90
4596;DHT22;2310;49.978;8.742;2023-08-07T00:50:16;14.80;99.90
4596;DHT22;2310;49.978;8.742;2023-08-07T00:54:18;14.90;99.90
4596;DHT22;2310;49.978;8.742;2023-08-07T00:58:21;14.80;99.90
4596;DHT22;2310;49.978;8.742;2023-08-07T01:02:22;14.80;99.90
4596;DHT22;2310;49.978;8.742;2023-08-07T01:06:24;14.80;99.90
4596;DHT22;2310;49.978;8.742;2023-08-07T01:15:04;14.70;99.90
4596;DHT22;2310;49.978;8.742;2023-08-07T01:19:03;14.90;99.90
4596;DHT22;2310;49.978;8.742;2023-08-07T01:23:05;14.80;99.90
4596;DHT22;2310;49.978;8.742;2023-08-07T01:27:19;14.80;99.90
4596;DHT22;2310;49.978;8.742;2023-08-07T01:31:20;14.80;99.90
4596;DHT22;2310;49.978;8.742;2023-08-07T01:35:23;14.70;99.90
4596;DHT22;2310;49.978;8.742;2023-08-07T01:39:27;14.70;99.90
4596;DHT22;2310;49.978;8.742;2023-08-07T01:43:29;14.80;99.90
4596;DHT22;2310;49.978;8.742;2023-08-07T01:47:32;14.80;99.90
4596;DHT22;2310;49.978;8.742;2023-08-07T01:51:33;14.70;99.90
4596;DHT22;2310;49.978;8.742;2023-08-07T01:55:35;14.70;99.90
4596;DHT22;2310;49.978;8.742;2023-08-07T01:59:36;14.80;99.90
4596;DHT22;2310;49.978;8.742;2023-08-07T02:03:37;14.70;99.90
4596;DHT22;2310;49.978;8.742;2023-08-07T02:07:39;14.70;99.90
4596;DHT22;2310;49.978;8.742;2023-08-07T02:11:41;14.70;99.90
4596;DHT22;2310;49.978;8.742;2023-08-07T02:15:43;14.80;99.90
4596;DHT22;2310;49.978;8.742;2023-08-07T02:19:45;14.70;99.90
4596;DHT22;2310;49.978;8.742;2023-08-07T02:23:46;14.60;99.90
4596;DHT22;2310;49.978;8.742;2023-08-07T02:27:47;14.70;99.90
4596;DHT22;2310;49.978;8.742;2023-08-07T02:31:48;14.70;99.90
4596;DHT22;2310;49.978;8.742;2023-08-07T02:35:50;14.80;99.90
4596;DHT22;2310;49.978;8.742;2023-08-07T02:39:52;14.80;99.90
4596;DHT22;2310;49.978;8.742;2023-08-07T02:43:54;14.80;99.90
4596;DHT22;2310;49.978;8.742;2023-08-07T02:47:56;14.70;99.90
4596;DHT22;2310;49.978;8.742;2023-08-07T02:51:57;14.80;99.90
4596;DHT22;2310;49.978;8.742;2023-08-07T02:55:59;14.70;99.90
4596;DHT22;2310;49.978;8.742;2023-08-07T03:00:00;14.80;99.90
4596;DHT22;2310;49.978;8.742;2023-08-07T03:04:01;14.70;99.90
4596;DHT22;2310;49.978;8.742;2023-08-07T03:08:03;14.60;99.90
4596;DHT22;2310;49.978;8.742;2023-08-07T03:12:05;14.60;99.90
4596;DHT22;2310;49.978;8.742;2023-08-07T03:16:06;14.60;99.90
4596;DHT22;2310;49.978;8.742;2023-08-07T03:20:09;14.60;99.90
4596;DHT22;2310;49.978;8.742;2023-08-07T03:24:10;14.50;99.90
4596;DHT22;2310;49.978;8.742;2023-08-07T03:28:13;14.60;99.90
4596;DHT22;2310;49.978;8.742;2023-08-07T03:32:15;14.70;99.90
4596;DHT22;2310;49.978;8.742;2023-08-07T03:36:17;14.70;99.90
4596;DHT22;2310;49.978;8.742;2023-08-07T03:40:18;14.70;99.90
4596;DHT22;2310;49.978;8.742;2023-08-07T03:44:20;14.70;99.90
4596;DHT22;2310;49.978;8.742;2023-08-07T03:48:21;14.60;99.90
4596;DHT22;2310;49.978;8.742;2023-08-07T03:52:22;14.60;99.90
4596;DHT22;2310;49.978;8.742;2023-08-07T03:56:24;14.50;99.90
4596;DHT22;2310;49.978;8.742;2023-08-07T04:00:25;14.50;99.90
4596;DHT22;2310;49.978;8.742;2023-08-07T04:04:27;14.50;99.90
4596;DHT22;2310;49.978;8.742;2023-08-07T04:08:28;14.50;99.90
4596;DHT22;2310;49.978;8.742;2023-08-07T04:12:29;14.60;99.90
4596;DHT22;2310;49.978;8.742;2023-08-07T04:16:31;14.60;99.90
4596;DHT22;2310;49.978;8.742;2023-08-07T04:20:32;14.60;99.90
4596;DHT22;2310;49.978;8.742;2023-08-07T04:24:33;14.60;99.90
4596;DHT22;2310;49.978;8.742;2023-08-07T04:28:35;14.70;99.90
4596;DHT22;2310;49.978;8.742;2023-08-07T04:32:36;14.60;99.90
4596;DHT22;2310;49.978;8.742;2023-08-07T04:36:38;14.70;99.90
4596;DHT22;2310;49.978;8.742;2023-08-07T04:40:49;14.70;99.90
4596;DHT22;2310;49.978;8.742;2023-08-07T04:44:51;14.80;99.90
4596;DHT22;2310;49.978;8.742;2023-08-07T04:48:52;14.70;99.90
4596;DHT22;2310;49.978;8.742;2023-08-07T04:52:56;14.70;99.90
4596;DHT22;2310;49.978;8.742;2023-08-07T04:56:57;14.60;99.90
4596;DHT22;2310;49.978;8.742;2023-08-07T05:00:59;14.70;99.90
4596;DHT22;2310;49.978;8.742;2023-08-07T05:05:02;14.80;99.90
4596;DHT22;2310;49.978;8.742;2023-08-07T05:09:04;14.90;99.90
4596;DHT22;2310;49.978;8.742;2023-08-07T05:13:05;15.00;99.90
4596;DHT22;2310;49.978;8.742;2023-08-07T05:17:07;15.00;99.90
4596;DHT22;2310;49.978;8.742;2023-08-07T05:21:08;15.00;99.90
4596;DHT22;2310;49.978;8.742;2023-08-07T05:25:10;15.00;99.90
4596;DHT22;2310;49.978;8.742;2023-08-07T05:29:13;15.10;99.90
4596;DHT22;2310;49.978;8.742;2023-08-07T05:33:15;15.20;99.90
4596;DHT22;2310;49.978;8.742;2023-08-07T05:37:16;15.20;99.90
4596;DHT22;2310;49.978;8.742;2023-08-07T05:41:18;15.00;99.90
4596;DHT22;2310;49.978;8.742;2023-08-07T05:45:19;15.00;99.90
4596;DHT22;2310;49.978;8.742;2023-08-07T05:49:21;15.00;99.90
4596;DHT22;2310;49.978;8.742;2023-08-07T05:53:24;15.00;99.90
4596;DHT22;2310;49.978;8.742;2023-08-07T05:57:26;15.00;99.90
4596;DHT22;2310;49.978;8.742;2023-08-07T06:01:27;15.10;99.90
4596;DHT22;2310;49.978;8.742;2023-08-07T06:05:31;15.10;99.90
4596;DHT22;2310;49.978;8.742;2023-08-07T06:09:33;15.00;99.90
4596;DHT22;2310;49.978;8.742;2023-08-07T06:13:34;15.20;99.90
4596;DHT22;2310;49.978;8.742;2023-08-07T06:17:37;15.20;99.90
4596;DHT22;2310;49.978;8.742;2023-08-07T06:21:40;15.10;99.90
4596;DHT22;2310;49.978;8.742;2023-08-07T06:25:42;15.20;99.90
4596;DHT22;2310;49.978;8.742;2023-08-07T06:29:44;15.00;99.90
4596;DHT22;2310;49.978;8.742;2023-08-07T06:33:45;15.00;99.90
4596;DHT22;2310;49.978;8.742;2023-08-07T06:37:46;15.00;99.90
4596;DHT22;2310;49.978;8.742;2023-08-07T06:41:48;14.90;99.90
4596;DHT22;2310;49.978;8.742;2023-08-07T06:45:50;14.80;99.90
4596;DHT22;2310;49.978;8.742;2023-08-07T06:49:51;14.90;99.90
4596;DHT22;2310;49.978;8.742;2023-08-07T06:53:53;14.80;99.90
4596;DHT22;2310;49.978;8.742;2023-08-07T06:57:54;14.80;99.90
4596;DHT22;2310;49.978;8.742;2023-08-07T07:01:56;15.00;99.90
4596;DHT22;2310;49.978;8.742;2023-08-07T07:05:57;15.00;99.90
4596;DHT22;2310;49.978;8.742;2023-08-07T07:09:59;15.00;99.90
4596;DHT22;2310;49.978;8.742;2023-08-07T07:14:01;14.90;99.90
4596;DHT22;2310;49.978;8.742;2023-08-07T07:18:03;14.80;99.90
4596;DHT22;2310;49.978;8.742;2023-08-07T07:22:05;14.90;99.90
4596;DHT22;2310;49.978;8.742;2023-08-07T07:26:06;15.10;99.90
4596;DHT22;2310;49.978;8.742;2023-08-07T07:30:08;15.10;99.90
4596;DHT22;2310;49.978;8.742;2023-08-07T07:34:09;15.30;99.90
4596;DHT22;2310;49.978;8.742;2023-08-07T07:38:11;15.40;99.90
4596;DHT22;2310;49.978;8.742;2023-08-07T07:42:13;15.40;99.90
4596;DHT22;2310;49.978;8.742;2023-08-07T07:46:14;15.20;99.90
4596;DHT22;2310;49.978;8.742;2023-08-07T07:50:16;15.40;99.90
4596;DHT22;2310;49.978;8.742;2023-08-07T07:54:17;15.30;99.90
4596;DHT22;2310;49.978;8.742;2023-08-07T07:58:20;15.30;99.90
4596;DHT22;2310;49.978;8.742;2023-08-07T08:02:21;15.40;99.90
4596;DHT22;2310;49.978;8.742;2023-08-07T08:06:25;15.40;99.90
4596;DHT22;2310;49.978;8.742;2023-08-07T08:10:27;15.40;99.90
4596;DHT22;2310;49.978;8.742;2023-08-07T08:14:28;15.30;99.90
4596;DHT22;2310;49.978;8.742;2023-08-07T08:18:31;15.30;99.90
4596;DHT22;2310;49.978;8.742;2023-08-07T08:22:33;15.40;99.90
4596;DHT22;2310;49.978;8.742;2023-08-07T08:26:35;15.40;99.90
4596;DHT22;2310;49.978;8.742;2023-08-07T08:30:36;15.50;99.90
4596;DHT22;2310;49.978;8.742;2023-08-07T08:34:37;15.30;99.90
4596;DHT22;2310;49.978;8.742;2023-08-07T08:38:39;15.20;99.90
4596;DHT22;2310;49.978;8.742;2023-08-07T08:42:40;15.30;99.90
4596;DHT22;2310;49.978;8.742;2023-08-07T08:46:42;15.40;99.90
4596;DHT22;2310;49.978;8.742;2023-08-07T08:50:44;15.50;99.90
4596;DHT22;2310;49.978;8.742;2023-08-07T08:54:47;15.40;99.90
4596;DHT22;2310;49.978;8.742;2023-08-07T08:58:52;15.30;99.90
4596;DHT22;2310;49.978;8.742;2023-08-07T09:02:53;15.20;99.90
4596;DHT22;2310;49.978;8.742;2023-08-07T09:06:55;15.40;99.90
4596;DHT22;2310;49.978;8.742;2023-08-07T09:10:57;15.30;99.90
4596;DHT22;2310;49.978;8.742;2023-08-07T09:15:00;15.20;99.90
4596;DHT22;2310;49.978;8.742;2023-08-07T09:19:02;15.30;99.90
4596;DHT22;2310;49.978;8.742;2023-08-07T09:23:05;15.30;99.90
4596;DHT22;2310;49.978;8.742;2023-08-07T09:27:07;15.50;99.90
4596;DHT22;2310;49.978;8.742;2023-08-07T09:31:13;15.50;99.90
4596;DHT22;2310;49.978;8.742;2023-08-07T09:35:14;15.50;99.90
4596;DHT22;2310;49.978;8.742;2023-08-07T09:39:15;15.50;99.90
4596;DHT22;2310;49.978;8.742;2023-08-07T09:43:21;15.60;99.90
4596;DHT22;2310;49.978;8.742;2023-08-07T09:47:23;15.60;99.90
4596;DHT22;2310;49.978;8.742;2023-08-07T09:51:25;15.70;99.90
4596;DHT22;2310;49.978;8.742;2023-08-07T09:55:26;15.60;99.90
4596;DHT22;2310;49.978;8.742;2023-08-07T09:59:28;15.60;99.90
4596;DHT22;2310;49.978;8.742;2023-08-07T10:03:31;15.60;99.90
4596;DHT22;2310;49.978;8.742;2023-08-07T10:07:33;15.70;99.90
4596;DHT22;2310;49.978;8.742;2023-08-07T10:11:35;15.80;99.90
4596;DHT22;2310;49.978;8.742;2023-08-07T10:15:37;15.80;99.90
4596;DHT22;2310;49.978;8.742;2023-08-07T10:19:41;16.00;99.90
4596;DHT22;2310;49.978;8.742;2023-08-07T10:23:43;16.00;99.90
4596;DHT22;2310;49.978;8.742;2023-08-07T10:27:45;16.20;99.90
4596;DHT22;2310;49.978;8.742;2023-08-07T10:31:47;16.10;99.90
4596;DHT22;2310;49.978;8.742;2023-08-07T10:35:52;16.20;99.90
4596;DHT22;2310;49.978;8.742;2023-08-07T10:40:06;16.30;99.90
4596;DHT22;2310;49.978;8.742;2023-08-07T10:44:21;16.40;99.90
4596;DHT22;2310;49.978;8.742;2023-08-07T10:48:23;16.50;99.90
4596;DHT22;2310;49.978;8.742;2023-08-07T10:52:25;16.40;99.90
4596;DHT22;2310;49.978;8.742;2023-08-07T10:56:35;16.40;99.90
4596;DHT22;2310;49.978;8.742;2023-08-07T11:00:42;16.40;99.90
4596;DHT22;2310;49.978;8.742;2023-08-07T11:04:44;16.30;99.90
4596;DHT22;2310;49.978;8.742;2023-08-07T11:08:47;16.50;99.90
4596;DHT22;2310;49.978;8.742;2023-08-07T11:12:49;16.50;99.90
4596;DHT22;2310;49.978;8.742;2023-08-07T11:16:52;16.40;99.90
4596;DHT22;2310;49.978;8.742;2023-08-07T11:20:54;16.30;99.90
4596;DHT22;2310;49.978;8.742;2023-08-07T11:24:57;16.30;99.90
4596;DHT22;2310;49.978;8.742;2023-08-07T11:28:59;16.40;99.90
4596;DHT22;2310;49.978;8.742;2023-08-07T11:33:00;16.40;99.90
4596;DHT22;2310;49.978;8.742;2023-08-07T11:37:05;16.40;99.90
4596;DHT22;2310;49.978;8.742;2023-08-07T11:41:07;16.50;99.90
4596;DHT22;2310;49.978;8.742;2023-08-07T11:45:08;16.40;99.90
4596;DHT22;2310;49.978;8.742;2023-08-07T11:49:10;16.60;99.90
4596;DHT22;2310;49.978;8.742;2023-08-07T11:53:13;16.70;99.90
4596;DHT22;2310;49.978;8.742;2023-08-07T11:57:19;16.70;99.90
4596;DHT22;2310;49.978;8.742;2023-08-07T12:01:22;16.70;99.90
4596;DHT22;2310;49.978;8.742;2023-08-07T12:05:26;16.80;99.90
4596;DHT22;2310;49.978;8.742;2023-08-07T12:09:30;17.00;99.90
4596;DHT22;2310;49.978;8.742;2023-08-07T12:13:32;17.20;99.90
4596;DHT22;2310;49.978;8.742;2023-08-07T12:17:37;17.40;99.90
4596;DHT22;2310;49.978;8.742;2023-08-07T12:21:38;17.40;99.90
4596;DHT22;2310;49.978;8.742;2023-08-07T12:25:40;17.50;99.90
4596;DHT22;2310;49.978;8.742;2023-08-07T12:29:41;17.60;99.90
4596;DHT22;2310;49.978;8.742;2023-08-07T12:33:43;17.70;99.90
4596;DHT22;2310;49.978;8.742;2023-08-07T12:37:44;17.70;99.90
4596;DHT22;2310;49.978;8.742;2023-08-07T12:41:46;17.60;99.90
4596;DHT22;2310;49.978;8.742;2023-08-07T12:45:51;17.60;99.90
4596;DHT22;2310;49.978;8.742;2023-08-07T12:49:54;17.30;99.90
4596;DHT22;2310;49.978;8.742;2023-08-07T12:53:55;17.50;99.90
4596;DHT22;2310;49.978;8.742;2023-08-07T12:57:57;17.90;99.90
4596;DHT22;2310;49.978;8.742;2023-08-07T13:01:58;18.20;99.90
4596;DHT22;2310;49.978;8.742;2023-08-07T13:06:00;18.70;99.90
4596;DHT22;2310;49.978;8.742;2023-08-07T13:10:02;19.10;99.90
4596;DHT22;2310;49.978;8.742;2023-08-07T13:14:03;19.30;99.90
4596;DHT22;2310;49.978;8.742;2023-08-07T13:18:05;19.30;99.90
4596;DHT22;2310;49.978;8.742;2023-08-07T13:22:07;19.30;99.90
4596;DHT22;2310;49.978;8.742;2023-08-07T13:26:08;19.50;99.90
4596;DHT22;2310;49.978;8.742;2023-08-07T13:30:10;19.70;99.90
4596;DHT22;2310;49.978;8.742;2023-08-07T13:34:12;20.20;99.90
4596;DHT22;2310;49.978;8.742;2023-08-07T13:38:14;20.40;99.90
4596;DHT22;2310;49.978;8.742;2023-08-07T13:42:16;20.40;99.90
4596;DHT22;2310;49.978;8.742;2023-08-07T13:46:18;20.60;99.90
4596;DHT22;2310;49.978;8.742;2023-08-07T13:50:20;20.50;99.90
4596;DHT22;2310;49.978;8.742;2023-08-07T13:54:21;20.20;99.90
4596;DHT22;2310;49.978;8.742;2023-08-07T13:58:22;19.90;99.90
4596;DHT22;2310;49.978;8.742;2023-08-07T14:02:24;19.80;99.90
4596;DHT22;2310;49.978;8.742;2023-08-07T14:06:25;20.00;99.90
4596;DHT22;2310;49.978;8.742;2023-08-07T14:10:27;20.10;99.90
4596;DHT22;2310;49.978;8.742;2023-08-07T14:14:28;20.50;99.90
4596;DHT22;2310;49.978;8.742;2023-08-07T14:18:29;21.00;99.90
4596;DHT22;2310;49.978;8.742;2023-08-07T14:22:31;21.20;99.90
4596;DHT22;2310;49.978;8.742;2023-08-07T14:26:33;21.20;99.10
4596;DHT22;2310;49.978;8.742;2023-08-07T14:30:34;21.30;98.00
4596;DHT22;2310;49.978;8.742;2023-08-07T14:34:35;21.50;92.70
4596;DHT22;2310;49.978;8.742;2023-08-07T14:38:37;21.70;86.30
4596;DHT22;2310;49.978;8.742;2023-08-07T14:42:38;21.80;88.00
4596;DHT22;2310;49.978;8.742;2023-08-07T14:46:39;21.60;92.50
4596;DHT22;2310;49.978;8.742;2023-08-07T14:50:41;21.50;84.30
4596;DHT22;2310;49.978;8.742;2023-08-07T14:54:43;21.50;80.00
4596;DHT22;2310;49.978;8.742;2023-08-07T14:58:44;21.30;80.30
4596;DHT22;2310;49.978;8.742;2023-08-07T15:02:46;21.10;94.00
4596;DHT22;2310;49.978;8.742;2023-08-07T15:06:47;20.90;89.20
4596;DHT22;2310;49.978;8.742;2023-08-07T15:10:51;20.70;86.80
4596;DHT22;2310;49.978;8.742;2023-08-07T15:14:53;20.50;91.00
4596;DHT22;2310;49.978;8.742;2023-08-07T15:18:55;20.50;93.60
4596;DHT22;2310;49.978;8.742;2023-08-07T15:22:56;20.60;95.60
4596;DHT22;2310;49.978;8.742;2023-08-07T15:26:57;20.50;95.40
4596;DHT22;2310;49.978;8.742;2023-08-07T15:31:01;20.60;97.30
4596;DHT22;2310;49.978;8.742;2023-08-07T15:35:02;21.00;93.70
4596;DHT22;2310;49.978;8.742;2023-08-07T15:39:04;21.20;90.30
4596;DHT22;2310;49.978;8.742;2023-08-07T15:43:09;21.50;89.50
4596;DHT22;2310;49.978;8.742;2023-08-07T15:47:11;21.70;92.80
4596;DHT22;2310;49.978;8.742;2023-08-07T15:51:12;21.80;81.80
4596;DHT22;2310;49.978;8.742;2023-08-07T15:55:14;22.00;79.20
4596;DHT22;2310;49.978;8.742;2023-08-07T15:59:15;21.90;76.90
4596;DHT22;2310;49.978;8.742;2023-08-07T16:03:16;22.00;79.00
4596;DHT22;2310;49.978;8.742;2023-08-07T16:07:18;21.70;73.50
4596;DHT22;2310;49.978;8.742;2023-08-07T16:11:20;21.50;72.30
4596;DHT22;2310;49.978;8.742;2023-08-07T16:15:23;21.30;70.60
4596;DHT22;2310;49.978;8.742;2023-08-07T16:19:24;21.30;72.50
4596;DHT22;2310;49.978;8.742;2023-08-07T16:23:25;21.30;74.30
4596;DHT22;2310;49.978;8.742;2023-08-07T16:27:27;21.40;80.30
4596;DHT22;2310;49.978;8.742;2023-08-07T16:31:28;21.50;87.70
4596;DHT22;2310;49.978;8.742;2023-08-07T16:35:30;21.70;75.80
4596;DHT22;2310;49.978;8.742;2023-08-07T16:39:32;21.90;75.70
4596;DHT22;2310;49.978;8.742;2023-08-07T16:43:33;21.90;77.00
4596;DHT22;2310;49.978;8.742;2023-08-07T16:47:35;22.00;74.60
4596;DHT22;2310;49.978;8.742;2023-08-07T16:51:39;21.90;78.30
4596;DHT22;2310;49.978;8.742;2023-08-07T16:55:40;21.80;80.40
4596;DHT22;2310;49.978;8.742;2023-08-07T16:59:41;21.70;78.60
4596;DHT22;2310;49.978;8.742;2023-08-07T17:03:43;21.80;91.20
4596;DHT22;2310;49.978;8.742;2023-08-07T17:07:45;21.60;77.50
4596;DHT22;2310;49.978;8.742;2023-08-07T17:11:46;21.50;79.20
4596;DHT22;2310;49.978;8.742;2023-08-07T17:15:48;21.30;72.90
4596;DHT22;2310;49.978;8.742;2023-08-07T17:19:49;21.00;74.80
4596;DHT22;2310;49.978;8.742;2023-08-07T17:23:51;20.80;72.20
4596;DHT22;2310;49.978;8.742;2023-08-07T17:27:52;20.60;72.40
4596;DHT22;2310;49.978;8.742;2023-08-07T17:31:54;20.50;72.40
4596;DHT22;2310;49.978;8.742;2023-08-07T17:35:57;20.60;72.30
4596;DHT22;2310;49.978;8.742;2023-08-07T17:39:59;20.60;73.90
4596;DHT22;2310;49.978;8.742;2023-08-07T17:44:00;20.70;74.70
4596;DHT22;2310;49.978;8.742;2023-08-07T17:48:02;21.00;75.10
4596;DHT22;2310;49.978;8.742;2023-08-07T17:52:04;20.90;71.00
4596;DHT22;2310;49.978;8.742;2023-08-07T17:56:05;20.90;75.00
4596;DHT22;2310;49.978;8.742;2023-08-07T18:00:07;20.80;77.60
4596;DHT22;2310;49.978;8.742;2023-08-07T18:04:09;20.80;77.10
4596;DHT22;2310;49.978;8.742;2023-08-07T18:08:10;20.80;77.60
4596;DHT22;2310;49.978;8.742;2023-08-07T18:12:12;20.70;77.10
4596;DHT22;2310;49.978;8.742;2023-08-07T18:16:15;20.80;80.70
4596;DHT22;2310;49.978;8.742;2023-08-07T18:20:17;20.90;89.50
4596;DHT22;2310;49.978;8.742;2023-08-07T18:24:18;20.90;92.00
4596;DHT22;2310;49.978;8.742;2023-08-07T18:28:20;20.80;99.90
4596;DHT22;2310;49.978;8.742;2023-08-07T18:32:21;20.70;99.70
4596;DHT22;2310;49.978;8.742;2023-08-07T18:36:23;20.40;95.50
4596;DHT22;2310;49.978;8.742;2023-08-07T18:40:24;20.20;90.50
4596;DHT22;2310;49.978;8.742;2023-08-07T18:44:25;20.10;92.90
4596;DHT22;2310;49.978;8.742;2023-08-07T18:48:27;19.90;98.40
4596;DHT22;2310;49.978;8.742;2023-08-07T18:52:28;19.80;98.30
4596;DHT22;2310;49.978;8.742;2023-08-07T18:56:29;19.60;99.90
4596;DHT22;2310;49.978;8.742;2023-08-07T19:00:31;19.60;99.90
4596;DHT22;2310;49.978;8.742;2023-08-07T19:04:32;19.40;99.90
4596;DHT22;2310;49.978;8.742;2023-08-07T19:08:34;19.30;99.90
4596;DHT22;2310;49.978;8.742;2023-08-07T19:12:36;19.20;99.90
4596;DHT22;2310;49.978;8.742;2023-08-07T19:16:38;19.00;99.90
4596;DHT22;2310;49.978;8.742;2023-08-07T19:20:40;18.90;99.90
4596;DHT22;2310;49.978;8.742;2023-08-07T19:24:43;18.80;99.90
4596;DHT22;2310;49.978;8.742;2023-08-07T19:28:44;18.80;99.90
4596;DHT22;2310;49.978;8.742;2023-08-07T19:32:45;18.70;99.90
4596;DHT22;2310;49.978;8.742;2023-08-07T19:36:47;18.70;99.90
4596;DHT22;2310;49.978;8.742;2023-08-07T19:40:50;18.50;99.90
4596;DHT22;2310;49.978;8.742;2023-08-07T19:44:52;18.30;99.90
4596;DHT22;2310;49.978;8.742;2023-08-07T19:48:53;18.10;99.90
4596;DHT22;2310;49.978;8.742;2023-08-07T19:52:56;18.10;99.90
4596;DHT22;2310;49.978;8.742;2023-08-07T19:56:57;18.10;99.90
4596;DHT22;2310;49.978;8.742;2023-08-07T20:00:59;18.00;99.90
4596;DHT22;2310;49.978;8.742;2023-08-07T20:05:00;17.70;99.90
4596;DHT22;2310;49.978;8.742;2023-08-07T20:09:02;17.70;99.90
4596;DHT22;2310;49.978;8.742;2023-08-07T20:13:03;17.60;99.90
4596;DHT22;2310;49.978;8.742;2023-08-07T20:17:05;17.60;99.90
4596;DHT22;2310;49.978;8.742;2023-08-07T20:21:07;17.60;99.90
4596;DHT22;2310;49.978;8.742;2023-08-07T20:25:08;17.60;99.90
4596;DHT22;2310;49.978;8.742;2023-08-07T20:29:11;17.60;99.90
4596;DHT22;2310;49.978;8.742;2023-08-07T20:33:12;17.40;99.90
4596;DHT22;2310;49.978;8.742;2023-08-07T20:37:13;17.40;99.90
4596;DHT22;2310;49.978;8.742;2023-08-07T20:41:15;17.40;99.90
4596;DHT22;2310;49.978;8.742;2023-08-07T20:45:16;17.40;99.90
4596;DHT22;2310;49.978;8.742;2023-08-07T20:49:18;17.40;99.90
4596;DHT22;2310;49.978;8.742;2023-08-07T20:53:19;17.40;99.90
4596;DHT22;2310;49.978;8.742;2023-08-07T20:57:21;17.30;99.90
4596;DHT22;2310;49.978;8.742;2023-08-07T21:01:22;17.20;99.90
4596;DHT22;2310;49.978;8.742;2023-08-07T21:05:23;17.30;99.90
4596;DHT22;2310;49.978;8.742;2023-08-07T21:09:25;17.10;99.90
4596;DHT22;2310;49.978;8.742;2023-08-07T21:13:26;17.20;99.90
4596;DHT22;2310;49.978;8.742;2023-08-07T21:17:29;17.20;99.90
4596;DHT22;2310;49.978;8.742;2023-08-07T21:21:30;17.20;99.90
4596;DHT22;2310;49.978;8.742;2023-08-07T21:25:32;17.10;99.90
4596;DHT22;2310;49.978;8.742;2023-08-07T21:29:33;17.00;99.90
4596;DHT22;2310;49.978;8.742;2023-08-07T21:33:35;16.90;99.90
4596;DHT22;2310;49.978;8.742;2023-08-07T21:37:36;16.90;99.90
4596;DHT22;2310;49.978;8.742;2023-08-07T21:41:37;16.80;99.90
4596;DHT22;2310;49.978;8.742;2023-08-07T21:45:39;16.70;99.90
4596;DHT22;2310;49.978;8.742;2023-08-07T21:49:40;16.60;99.90
4596;DHT22;2310;49.978;8.742;2023-08-07T21:53:43;16.60;99.90
4596;DHT22;2310;49.978;8.742;2023-08-07T21:57:46;16.50;99.90
4596;DHT22;2310;49.978;8.742;2023-08-07T22:01:47;16.50;99.90
4596;DHT22;2310;49.978;8.742;2023-08-07T22:05:50;16.50;99.90
4596;DHT22;2310;49.978;8.742;2023-08-07T22:09:51;16.40;99.90
4596;DHT22;2310;49.978;8.742;2023-08-07T22:13:52;16.20;99.90
4596;DHT22;2310;49.978;8.742;2023-08-07T22:17:54;16.30;99.90
4596;DHT22;2310;49.978;8.742;2023-08-07T22:21:57;16.20;99.90
4596;DHT22;2310;49.978;8.742;2023-08-07T22:25:59;16.00;99.90
4596;DHT22;2310;49.978;8.742;2023-08-07T22:30:00;15.80;99.90
4596;DHT22;2310;49.978;8.742;2023-08-07T22:34:02;16.00;99.90
4596;DHT22;2310;49.978;8.742;2023-08-07T22:38:04;16.10;99.90
4596;DHT22;2310;49.978;8.742;2023-08-07T22:42:06;16.00;99.90
4596;DHT22;2310;49.978;8.742;2023-08-07T22:46:07;15.80;99.90
4596;DHT22;2310;49.978;8.742;2023-08-07T22:50:09;15.70;99.90
4596;DHT22;2310;49.978;8.742;2023-08-07T22:54:10;15.70;99.90
4596;DHT22;2310;49.978;8.742;2023-08-07T22:58:12;15.80;99.90
4596;DHT22;2310;49.978;8.742;2023-08-07T23:02:14;15.80;99.90
4596;DHT22;2310;49.978;8.742;2023-08-07T23:06:15;15.80;99.90
4596;DHT22;2310;49.978;8.742;2023-08-07T23:10:16;15.70;99.90
4596;DHT22;2310;49.978;8.742;2023-08-07T23:14:18;15.70;99.90
4596;DHT22;2310;49.978;8.742;2023-08-07T23:18:19;15.60;99.90
4596;DHT22;2310;49.978;8.742;2023-08-07T23:22:20;15.30;99.90
4596;DHT22;2310;49.978;8.742;2023-08-07T23:26:22;15.40;99.90
4596;DHT22;2310;49.978;8.742;2023-08-07T23:30:23;15.40;99.90
4596;DHT22;2310;49.978;8.742;2023-08-07T23:34:24;15.40;99.90
4596;DHT22;2310;49.978;8.742;2023-08-07T23:38:26;15.40;99.90
4596;DHT22;2310;49.978;8.742;2023-08-07T23:42:27;15.00;99.90
4596;DHT22;2310;49.978;8.742;2023-08-07T23:46:30;15.00;99.90
4596;DHT22;2310;49.978;8.742;2023-08-07T23:50:31;15.00;99.90
4596;DHT22;2310;49.978;8.742;2023-08-07T23:54:32;15.00;99.90
4596;DHT22;2310;49.978;8.742;2023-08-07T23:58:34;15.10;99.90
